sensor_id;sensor_type;location;lat;lon;timestamp;temperature;humidity
16271;DHT22;8243;49.048;8.396;2023-01-04T00:01:17;4.60;99.90
16271;DHT22;8243;49.048;8.396;2023-01-04T00:03:43;4.80;99.90
16271;DHT22;8243;49.048;8.396;2023-01-04T00:06:11;4.50;99.90
16271;DHT22;8243;49.048;8.396;2023-01-04T00:08:37;4.60;99.90
16271;DHT22;8243;49.048;8.396;2023-01-04T00:11:10;4.50;99.90
16271;DHT22;8243;49.048;8.396;2023-01-04T00:13:36;4.60;99.90
16271;DHT22;8243;49.048;8.396;2023-01-04T00:16:07;4.30;99.90
16271;DHT22;8243;49.048;8.396;2023-01-04T00:18:35;4.20;99.90
16271;DHT22;8243;49.048;8.396;2023-01-04T00:21:11;4.30;99.90
16271;DHT22;8243;49.048;8.396;2023-01-04T00:23:38;4.40;99.90
16271;DHT22;8243;49.048;8.396;2023-01-04T00:26:16;4.30;99.90
16271;DHT22;8243;49.048;8.396;2023-01-04T00:28:42;4.20;99.90
16271;DHT22;8243;49.048;8.396;2023-01-04T00:31:10;4.30;99.90
16271;DHT22;8243;49.048;8.396;2023-01-04T00:33:36;4.20;99.90
16271;DHT22;8243;49.048;8.396;2023-01-04T00:36:08;4.30;99.90
16271;DHT22;8243;49.048;8.396;2023-01-04T00:38:34;4.30;99.90
16271;DHT22;8243;49.048;8.396;2023-01-04T00:41:01;4.10;99.90
16271;DHT22;8243;49.048;8.396;2023-01-04T00:43:29;4.10;99.90
16271;DHT22;8243;49.048;8.396;2023-01-04T00:45:54;4.00;99.90
16271;DHT22;8243;49.048;8.396;2023-01-04T00:48:20;4.20;99.90
16271;DHT22;8243;49.048;8.396;2023-01-04T00:50:49;4.00;99.90
16271;DHT22;8243;49.048;8.396;2023-01-04T00:53:15;4.00;99.90
16271;DHT22;8243;49.048;8.396;2023-01-04T00:55:41;4.10;99.90
16271;DHT22;8243;49.048;8.396;2023-01-04T00:58:06;3.90;99.90
16271;DHT22;8243;49.048;8.396;2023-01-04T01:00:32;3.80;99.90
16271;DHT22;8243;49.048;8.396;2023-01-04T01:02:58;4.00;99.90
16271;DHT22;8243;49.048;8.396;2023-01-04T01:05:24;3.90;99.90
16271;DHT22;8243;49.048;8.396;2023-01-04T01:07:49;3.60;99.90
16271;DHT22;8243;49.048;8.396;2023-01-04T01:10:15;3.50;99.90
16271;DHT22;8243;49.048;8.396;2023-01-04T01:12:41;3.40;99.90
16271;DHT22;8243;49.048;8.396;2023-01-04T01:15:06;3.50;99.90
16271;DHT22;8243;49.048;8.396;2023-01-04T01:17:32;3.30;99.90
16271;DHT22;8243;49.048;8.396;2023-01-04T01:19:58;3.30;99.90
16271;DHT22;8243;49.048;8.396;2023-01-04T01:22:24;3.20;99.90
16271;DHT22;8243;49.048;8.396;2023-01-04T01:24:49;3.30;99.90
16271;DHT22;8243;49.048;8.396;2023-01-04T01:27:15;3.20;99.90
16271;DHT22;8243;49.048;8.396;2023-01-04T01:29:40;3.30;99.90
16271;DHT22;8243;49.048;8.396;2023-01-04T01:32:06;3.10;99.90
16271;DHT22;8243;49.048;8.396;2023-01-04T01:34:31;3.30;99.90
16271;DHT22;8243;49.048;8.396;2023-01-04T01:36:57;3.00;99.90
16271;DHT22;8243;49.048;8.396;2023-01-04T01:39:23;3.00;99.90
16271;DHT22;8243;49.048;8.396;2023-01-04T01:41:48;3.10;99.90
16271;DHT22;8243;49.048;8.396;2023-01-04T01:47:42;3.10;99.90
16271;DHT22;8243;49.048;8.396;2023-01-04T01:50:23;2.90;99.90
16271;DHT22;8243;49.048;8.396;2023-01-04T01:52:50;2.80;99.90
16271;DHT22;8243;49.048;8.396;2023-01-04T01:55:17;2.90;99.90
16271;DHT22;8243;49.048;8.396;2023-01-04T01:57:45;3.00;99.90
16271;DHT22;8243;49.048;8.396;2023-01-04T02:00:13;2.80;99.90
16271;DHT22;8243;49.048;8.396;2023-01-04T02:02:51;3.00;99.90
16271;DHT22;8243;49.048;8.396;2023-01-04T02:05:18;3.10;99.90
16271;DHT22;8243;49.048;8.396;2023-01-04T02:07:45;3.20;99.90
16271;DHT22;8243;49.048;8.396;2023-01-04T02:10:13;3.30;99.90
16271;DHT22;8243;49.048;8.396;2023-01-04T02:12:38;3.30;99.90
16271;DHT22;8243;49.048;8.396;2023-01-04T02:15:05;3.50;99.90
16271;DHT22;8243;49.048;8.396;2023-01-04T02:17:47;3.60;99.90
16271;DHT22;8243;49.048;8.396;2023-01-04T02:28:35;4.20;99.90
16271;DHT22;8243;49.048;8.396;2023-01-04T02:37:06;4.30;99.90
16271;DHT22;8243;49.048;8.396;2023-01-04T02:40:07;4.40;99.90
16271;DHT22;8243;49.048;8.396;2023-01-04T02:42:59;4.50;99.90
16271;DHT22;8243;49.048;8.396;2023-01-04T02:46:01;4.90;99.90
16271;DHT22;8243;49.048;8.396;2023-01-04T02:48:39;4.90;99.90
16271;DHT22;8243;49.048;8.396;2023-01-04T02:51:32;4.90;99.90
16271;DHT22;8243;49.048;8.396;2023-01-04T02:54:02;5.10;99.90
16271;DHT22;8243;49.048;8.396;2023-01-04T02:56:58;5.10;99.90
16271;DHT22;8243;49.048;8.396;2023-01-04T02:59:52;5.20;99.90
16271;DHT22;8243;49.048;8.396;2023-01-04T03:08:38;5.30;99.90
16271;DHT22;8243;49.048;8.396;2023-01-04T03:11:13;5.30;99.90
16271;DHT22;8243;49.048;8.396;2023-01-04T03:14:06;5.40;99.90
16271;DHT22;8243;49.048;8.396;2023-01-04T03:16:34;5.40;99.90
16271;DHT22;8243;49.048;8.396;2023-01-04T03:19:03;5.20;99.90
16271;DHT22;8243;49.048;8.396;2023-01-04T03:21:35;5.40;99.90
16271;DHT22;8243;49.048;8.396;2023-01-04T03:24:02;5.40;99.90
16271;DHT22;8243;49.048;8.396;2023-01-04T03:26:50;5.50;99.90
16271;DHT22;8243;49.048;8.396;2023-01-04T03:30:07;5.50;99.90
16271;DHT22;8243;49.048;8.396;2023-01-04T03:33:02;5.10;99.90
16271;DHT22;8243;49.048;8.396;2023-01-04T03:36:28;5.60;99.90
16271;DHT22;8243;49.048;8.396;2023-01-04T03:39:02;5.60;99.90
16271;DHT22;8243;49.048;8.396;2023-01-04T03:42:18;5.70;99.90
16271;DHT22;8243;49.048;8.396;2023-01-04T03:45:14;5.70;99.90
16271;DHT22;8243;49.048;8.396;2023-01-04T03:50:57;5.80;99.90
16271;DHT22;8243;49.048;8.396;2023-01-04T03:53:25;5.90;99.90
16271;DHT22;8243;49.048;8.396;2023-01-04T03:55:51;5.90;99.90
16271;DHT22;8243;49.048;8.396;2023-01-04T03:58:19;5.90;99.90
16271;DHT22;8243;49.048;8.396;2023-01-04T04:00:46;5.90;99.90
16271;DHT22;8243;49.048;8.396;2023-01-04T04:03:12;6.00;99.90
16271;DHT22;8243;49.048;8.396;2023-01-04T04:05:40;6.00;99.90
16271;DHT22;8243;49.048;8.396;2023-01-04T04:08:24;6.00;99.90
16271;DHT22;8243;49.048;8.396;2023-01-04T04:10:54;6.00;99.90
16271;DHT22;8243;49.048;8.396;2023-01-04T04:13:20;6.00;99.90
16271;DHT22;8243;49.048;8.396;2023-01-04T04:15:46;6.00;99.90
16271;DHT22;8243;49.048;8.396;2023-01-04T04:18:11;5.90;99.90
16271;DHT22;8243;49.048;8.396;2023-01-04T04:20:37;5.90;99.90
16271;DHT22;8243;49.048;8.396;2023-01-04T04:23:03;5.90;99.90
16271;DHT22;8243;49.048;8.396;2023-01-04T04:25:28;5.90;99.90
16271;DHT22;8243;49.048;8.396;2023-01-04T04:27:54;6.00;99.90
16271;DHT22;8243;49.048;8.396;2023-01-04T04:30:20;6.00;99.90
16271;DHT22;8243;49.048;8.396;2023-01-04T04:32:45;6.00;99.90
16271;DHT22;8243;49.048;8.396;2023-01-04T04:35:11;6.00;99.90
16271;DHT22;8243;49.048;8.396;2023-01-04T04:37:36;6.00;99.90
16271;DHT22;8243;49.048;8.396;2023-01-04T04:40:03;6.00;99.90
16271;DHT22;8243;49.048;8.396;2023-01-04T04:42:29;6.00;99.90
16271;DHT22;8243;49.048;8.396;2023-01-04T04:44:54;6.00;99.90
16271;DHT22;8243;49.048;8.396;2023-01-04T04:47:20;6.00;99.90
16271;DHT22;8243;49.048;8.396;2023-01-04T04:49:46;6.00;99.90
16271;DHT22;8243;49.048;8.396;2023-01-04T04:52:11;6.10;99.90
16271;DHT22;8243;49.048;8.396;2023-01-04T04:54:37;6.10;99.90
16271;DHT22;8243;49.048;8.396;2023-01-04T04:57:02;6.20;99.90
16271;DHT22;8243;49.048;8.396;2023-01-04T04:59:28;6.20;99.90
16271;DHT22;8243;49.048;8.396;2023-01-04T05:01:53;6.30;99.90
16271;DHT22;8243;49.048;8.396;2023-01-04T05:04:19;6.30;99.90
16271;DHT22;8243;49.048;8.396;2023-01-04T05:06:46;6.30;99.90
16271;DHT22;8243;49.048;8.396;2023-01-04T05:09:13;6.30;99.90
16271;DHT22;8243;49.048;8.396;2023-01-04T05:11:39;6.40;99.90
16271;DHT22;8243;49.048;8.396;2023-01-04T05:14:24;6.40;99.90
16271;DHT22;8243;49.048;8.396;2023-01-04T05:16:50;6.40;99.90
16271;DHT22;8243;49.048;8.396;2023-01-04T05:19:15;6.40;99.90
16271;DHT22;8243;49.048;8.396;2023-01-04T05:21:41;6.40;99.90
16271;DHT22;8243;49.048;8.396;2023-01-04T05:24:07;6.40;99.90
16271;DHT22;8243;49.048;8.396;2023-01-04T05:26:34;6.40;99.90
16271;DHT22;8243;49.048;8.396;2023-01-04T05:29:00;6.50;99.90
16271;DHT22;8243;49.048;8.396;2023-01-04T05:31:26;6.60;99.90
16271;DHT22;8243;49.048;8.396;2023-01-04T05:33:51;6.70;99.90
16271;DHT22;8243;49.048;8.396;2023-01-04T05:36:17;6.80;99.90
16271;DHT22;8243;49.048;8.396;2023-01-04T05:38:42;6.90;99.90
16271;DHT22;8243;49.048;8.396;2023-01-04T05:41:08;7.00;99.90
16271;DHT22;8243;49.048;8.396;2023-01-04T05:43:53;7.10;99.90
16271;DHT22;8243;49.048;8.396;2023-01-04T05:46:19;7.10;99.90
16271;DHT22;8243;49.048;8.396;2023-01-04T05:48:44;7.20;99.90
16271;DHT22;8243;49.048;8.396;2023-01-04T05:51:10;7.20;99.90
16271;DHT22;8243;49.048;8.396;2023-01-04T05:53:35;7.20;99.90
16271;DHT22;8243;49.048;8.396;2023-01-04T05:56:01;7.30;99.90
16271;DHT22;8243;49.048;8.396;2023-01-04T05:58:26;7.30;99.90
16271;DHT22;8243;49.048;8.396;2023-01-04T06:00:53;7.30;99.90
16271;DHT22;8243;49.048;8.396;2023-01-04T06:03:18;7.40;99.90
16271;DHT22;8243;49.048;8.396;2023-01-04T06:05:50;7.40;99.90
16271;DHT22;8243;49.048;8.396;2023-01-04T06:08:16;7.40;99.90
16271;DHT22;8243;49.048;8.396;2023-01-04T06:10:42;7.40;99.90
16271;DHT22;8243;49.048;8.396;2023-01-04T06:13:07;7.40;99.90
16271;DHT22;8243;49.048;8.396;2023-01-04T06:15:33;7.40;99.90
16271;DHT22;8243;49.048;8.396;2023-01-04T06:17:58;7.50;99.90
16271;DHT22;8243;49.048;8.396;2023-01-04T06:20:24;7.60;99.90
16271;DHT22;8243;49.048;8.396;2023-01-04T06:22:50;7.60;99.90
16271;DHT22;8243;49.048;8.396;2023-01-04T06:25:15;7.70;99.90
16271;DHT22;8243;49.048;8.396;2023-01-04T06:27:41;7.70;99.90
16271;DHT22;8243;49.048;8.396;2023-01-04T06:30:07;7.70;99.90
16271;DHT22;8243;49.048;8.396;2023-01-04T06:32:33;7.80;99.90
16271;DHT22;8243;49.048;8.396;2023-01-04T06:34:58;7.80;99.90
16271;DHT22;8243;49.048;8.396;2023-01-04T06:37:24;7.90;99.90
16271;DHT22;8243;49.048;8.396;2023-01-04T06:39:50;7.90;99.90
16271;DHT22;8243;49.048;8.396;2023-01-04T06:42:15;7.90;99.90
16271;DHT22;8243;49.048;8.396;2023-01-04T06:44:59;8.00;99.90
16271;DHT22;8243;49.048;8.396;2023-01-04T06:47:25;8.00;99.90
16271;DHT22;8243;49.048;8.396;2023-01-04T06:49:51;8.00;99.90
16271;DHT22;8243;49.048;8.396;2023-01-04T06:52:16;8.00;99.90
16271;DHT22;8243;49.048;8.396;2023-01-04T06:54:42;8.10;99.90
16271;DHT22;8243;49.048;8.396;2023-01-04T06:57:07;8.10;99.90
16271;DHT22;8243;49.048;8.396;2023-01-04T06:59:33;8.10;99.90
16271;DHT22;8243;49.048;8.396;2023-01-04T07:01:58;8.10;99.90
16271;DHT22;8243;49.048;8.396;2023-01-04T07:04:24;8.20;99.90
16271;DHT22;8243;49.048;8.396;2023-01-04T07:06:49;8.20;99.90
16271;DHT22;8243;49.048;8.396;2023-01-04T07:09:15;8.20;99.90
16271;DHT22;8243;49.048;8.396;2023-01-04T07:11:40;8.20;99.90
16271;DHT22;8243;49.048;8.396;2023-01-04T07:14:06;8.20;99.90
16271;DHT22;8243;49.048;8.396;2023-01-04T07:16:31;8.20;99.90
16271;DHT22;8243;49.048;8.396;2023-01-04T07:18:57;8.20;99.90
16271;DHT22;8243;49.048;8.396;2023-01-04T07:21:22;8.30;99.90
16271;DHT22;8243;49.048;8.396;2023-01-04T07:23:50;8.30;99.90
16271;DHT22;8243;49.048;8.396;2023-01-04T07:26:15;8.30;99.90
16271;DHT22;8243;49.048;8.396;2023-01-04T07:28:41;8.30;99.90
16271;DHT22;8243;49.048;8.396;2023-01-04T07:31:24;8.30;99.90
16271;DHT22;8243;49.048;8.396;2023-01-04T07:33:50;8.40;99.90
16271;DHT22;8243;49.048;8.396;2023-01-04T07:36:15;8.40;99.90
16271;DHT22;8243;49.048;8.396;2023-01-04T07:38:41;8.40;99.90
16271;DHT22;8243;49.048;8.396;2023-01-04T07:41:08;8.40;99.90
16271;DHT22;8243;49.048;8.396;2023-01-04T07:43:33;8.40;99.90
16271;DHT22;8243;49.048;8.396;2023-01-04T07:45:59;8.40;99.90
16271;DHT22;8243;49.048;8.396;2023-01-04T07:48:24;8.40;99.90
16271;DHT22;8243;49.048;8.396;2023-01-04T07:50:50;8.40;99.90
16271;DHT22;8243;49.048;8.396;2023-01-04T07:53:16;8.40;99.90
16271;DHT22;8243;49.048;8.396;2023-01-04T07:55:41;8.50;99.90
16271;DHT22;8243;49.048;8.396;2023-01-04T07:58:07;8.50;99.90
16271;DHT22;8243;49.048;8.396;2023-01-04T08:00:32;8.50;99.90
16271;DHT22;8243;49.048;8.396;2023-01-04T08:02:58;8.50;99.90
16271;DHT22;8243;49.048;8.396;2023-01-04T08:05:23;8.50;99.90
16271;DHT22;8243;49.048;8.396;2023-01-04T08:07:50;8.50;99.90
16271;DHT22;8243;49.048;8.396;2023-01-04T08:10:16;8.60;99.90
16271;DHT22;8243;49.048;8.396;2023-01-04T08:12:41;8.60;99.90
16271;DHT22;8243;49.048;8.396;2023-01-04T08:15:07;8.60;99.90
16271;DHT22;8243;49.048;8.396;2023-01-04T08:17:33;8.60;99.90
16271;DHT22;8243;49.048;8.396;2023-01-04T08:19:59;8.60;99.90
16271;DHT22;8243;49.048;8.396;2023-01-04T08:22:25;8.70;99.90
16271;DHT22;8243;49.048;8.396;2023-01-04T08:24:51;8.70;99.90
16271;DHT22;8243;49.048;8.396;2023-01-04T08:27:17;8.70;99.90
16271;DHT22;8243;49.048;8.396;2023-01-04T08:29:42;8.80;99.90
16271;DHT22;8243;49.048;8.396;2023-01-04T08:32:08;8.80;99.90
16271;DHT22;8243;49.048;8.396;2023-01-04T08:34:33;8.90;99.90
16271;DHT22;8243;49.048;8.396;2023-01-04T08:36:59;8.90;99.90
16271;DHT22;8243;49.048;8.396;2023-01-04T08:39:24;9.00;99.90
16271;DHT22;8243;49.048;8.396;2023-01-04T08:41:53;9.00;99.90
16271;DHT22;8243;49.048;8.396;2023-01-04T08:44:23;9.00;99.90
16271;DHT22;8243;49.048;8.396;2023-01-04T08:46:50;9.10;99.90
16271;DHT22;8243;49.048;8.396;2023-01-04T08:49:15;9.10;99.90
16271;DHT22;8243;49.048;8.396;2023-01-04T08:51:41;9.10;99.90
16271;DHT22;8243;49.048;8.396;2023-01-04T08:54:08;9.10;99.90
16271;DHT22;8243;49.048;8.396;2023-01-04T08:56:34;9.10;99.90
16271;DHT22;8243;49.048;8.396;2023-01-04T08:59:00;9.10;99.90
16271;DHT22;8243;49.048;8.396;2023-01-04T09:01:25;9.20;99.90
16271;DHT22;8243;49.048;8.396;2023-01-04T09:03:51;9.20;99.00
16271;DHT22;8243;49.048;8.396;2023-01-04T09:06:17;9.30;99.00
16271;DHT22;8243;49.048;8.396;2023-01-04T09:08:43;9.40;98.20
16271;DHT22;8243;49.048;8.396;2023-01-04T09:11:14;9.40;98.00
16271;DHT22;8243;49.048;8.396;2023-01-04T09:13:40;9.40;97.30
16271;DHT22;8243;49.048;8.396;2023-01-04T09:16:09;9.40;96.90
16271;DHT22;8243;49.048;8.396;2023-01-04T09:18:35;9.50;96.40
16271;DHT22;8243;49.048;8.396;2023-01-04T09:21:09;9.50;95.40
16271;DHT22;8243;49.048;8.396;2023-01-04T09:23:35;9.50;95.20
16271;DHT22;8243;49.048;8.396;2023-01-04T09:26:10;9.50;94.70
16271;DHT22;8243;49.048;8.396;2023-01-04T09:28:36;9.60;94.70
16271;DHT22;8243;49.048;8.396;2023-01-04T09:31:06;9.60;94.70
16271;DHT22;8243;49.048;8.396;2023-01-04T09:33:32;9.60;93.70
16271;DHT22;8243;49.048;8.396;2023-01-04T09:36:04;9.60;93.70
16271;DHT22;8243;49.048;8.396;2023-01-04T09:38:31;9.60;93.00
16271;DHT22;8243;49.048;8.396;2023-01-04T09:43:50;9.70;92.50
16271;DHT22;8243;49.048;8.396;2023-01-04T09:48:57;9.80;91.30
16271;DHT22;8243;49.048;8.396;2023-01-04T09:51:31;9.90;90.00
16271;DHT22;8243;49.048;8.396;2023-01-04T09:54:03;9.90;88.90
16271;DHT22;8243;49.048;8.396;2023-01-04T09:56:33;10.00;86.40
16271;DHT22;8243;49.048;8.396;2023-01-04T09:59:02;10.00;84.30
16271;DHT22;8243;49.048;8.396;2023-01-04T10:01:40;10.00;83.60
16271;DHT22;8243;49.048;8.396;2023-01-04T10:04:22;10.10;83.00
16271;DHT22;8243;49.048;8.396;2023-01-04T10:06:48;10.10;80.20
16271;DHT22;8243;49.048;8.396;2023-01-04T10:09:15;10.20;79.50
16271;DHT22;8243;49.048;8.396;2023-01-04T10:12:00;10.30;77.50
16271;DHT22;8243;49.048;8.396;2023-01-04T10:25:41;10.40;73.70
16271;DHT22;8243;49.048;8.396;2023-01-04T10:31:13;10.40;73.80
16271;DHT22;8243;49.048;8.396;2023-01-04T10:33:46;10.40;72.40
16271;DHT22;8243;49.048;8.396;2023-01-04T10:36:21;10.40;72.50
16271;DHT22;8243;49.048;8.396;2023-01-04T10:39:01;10.40;71.60
16271;DHT22;8243;49.048;8.396;2023-01-04T10:41:31;10.50;71.20
16271;DHT22;8243;49.048;8.396;2023-01-04T10:47:16;10.40;70.80
16271;DHT22;8243;49.048;8.396;2023-01-04T10:49:57;10.40;70.50
16271;DHT22;8243;49.048;8.396;2023-01-04T10:55:19;10.40;71.40
16271;DHT22;8243;49.048;8.396;2023-01-04T10:57:58;10.40;71.60
16271;DHT22;8243;49.048;8.396;2023-01-04T11:00:30;10.40;72.10
16271;DHT22;8243;49.048;8.396;2023-01-04T11:03:11;10.40;72.10
16271;DHT22;8243;49.048;8.396;2023-01-04T11:10:51;10.30;72.20
16271;DHT22;8243;49.048;8.396;2023-01-04T11:13:18;10.40;72.70
16271;DHT22;8243;49.048;8.396;2023-01-04T11:15:44;10.40;73.40
16271;DHT22;8243;49.048;8.396;2023-01-04T11:18:12;10.40;73.60
16271;DHT22;8243;49.048;8.396;2023-01-04T11:20:38;10.40;74.60
16271;DHT22;8243;49.048;8.396;2023-01-04T11:23:15;10.40;74.80
16271;DHT22;8243;49.048;8.396;2023-01-04T11:26:03;10.40;74.30
16271;DHT22;8243;49.048;8.396;2023-01-04T11:28:38;10.40;74.90
16271;DHT22;8243;49.048;8.396;2023-01-04T11:33:56;10.30;75.80
16271;DHT22;8243;49.048;8.396;2023-01-04T11:36:42;10.30;76.10
16271;DHT22;8243;49.048;8.396;2023-01-04T11:39:20;10.30;75.90
16271;DHT22;8243;49.048;8.396;2023-01-04T11:42:03;10.40;75.90
16271;DHT22;8243;49.048;8.396;2023-01-04T11:44:33;10.40;75.50
16271;DHT22;8243;49.048;8.396;2023-01-04T11:47:19;10.50;74.70
16271;DHT22;8243;49.048;8.396;2023-01-04T11:49:46;10.50;74.20
16271;DHT22;8243;49.048;8.396;2023-01-04T11:52:35;10.50;74.30
16271;DHT22;8243;49.048;8.396;2023-01-04T11:55:28;10.50;75.60
16271;DHT22;8243;49.048;8.396;2023-01-04T12:00:32;10.50;75.10
16271;DHT22;8243;49.048;8.396;2023-01-04T12:03:12;10.50;75.40
16271;DHT22;8243;49.048;8.396;2023-01-04T12:05:38;10.60;76.00
16271;DHT22;8243;49.048;8.396;2023-01-04T12:08:04;10.60;75.90
16271;DHT22;8243;49.048;8.396;2023-01-04T12:10:30;10.70;76.50
16271;DHT22;8243;49.048;8.396;2023-01-04T12:12:59;10.70;76.70
16271;DHT22;8243;49.048;8.396;2023-01-04T12:15:42;10.80;77.00
16271;DHT22;8243;49.048;8.396;2023-01-04T12:18:16;10.80;76.80
16271;DHT22;8243;49.048;8.396;2023-01-04T12:20:44;10.90;77.50
16271;DHT22;8243;49.048;8.396;2023-01-04T12:23:11;10.80;78.00
16271;DHT22;8243;49.048;8.396;2023-01-04T12:25:46;10.80;79.10
16271;DHT22;8243;49.048;8.396;2023-01-04T12:28:35;10.90;79.00
16271;DHT22;8243;49.048;8.396;2023-01-04T12:33:46;10.90;77.80
16271;DHT22;8243;49.048;8.396;2023-01-04T12:36:13;10.90;77.90
16271;DHT22;8243;49.048;8.396;2023-01-04T12:39:02;11.00;77.80
16271;DHT22;8243;49.048;8.396;2023-01-04T12:47:07;11.10;75.20
16271;DHT22;8243;49.048;8.396;2023-01-04T12:50:14;11.10;74.50
16271;DHT22;8243;49.048;8.396;2023-01-04T12:52:42;11.10;74.40
16271;DHT22;8243;49.048;8.396;2023-01-04T12:55:49;11.10;74.60
16271;DHT22;8243;49.048;8.396;2023-01-04T13:06:02;11.10;74.20
16271;DHT22;8243;49.048;8.396;2023-01-04T13:08:28;11.10;74.30
16271;DHT22;8243;49.048;8.396;2023-01-04T13:10:59;11.10;74.40
16271;DHT22;8243;49.048;8.396;2023-01-04T13:13:48;11.10;74.40
16271;DHT22;8243;49.048;8.396;2023-01-04T13:16:42;11.10;74.00
16271;DHT22;8243;49.048;8.396;2023-01-04T13:19:23;11.10;74.40
16271;DHT22;8243;49.048;8.396;2023-01-04T13:21:51;11.10;74.50
16271;DHT22;8243;49.048;8.396;2023-01-04T13:26:47;11.10;74.50
16271;DHT22;8243;49.048;8.396;2023-01-04T13:34:28;11.20;75.20
16271;DHT22;8243;49.048;8.396;2023-01-04T13:37:06;11.20;75.30
16271;DHT22;8243;49.048;8.396;2023-01-04T13:42:37;11.30;75.60
16271;DHT22;8243;49.048;8.396;2023-01-04T13:47:57;11.10;76.30
16271;DHT22;8243;49.048;8.396;2023-01-04T13:52:58;11.10;77.50
16271;DHT22;8243;49.048;8.396;2023-01-04T13:55:26;11.10;77.20
16271;DHT22;8243;49.048;8.396;2023-01-04T13:57:56;11.10;78.10
16271;DHT22;8243;49.048;8.396;2023-01-04T14:00:23;11.10;78.40
16271;DHT22;8243;49.048;8.396;2023-01-04T14:05:36;11.00;78.50
16271;DHT22;8243;49.048;8.396;2023-01-04T14:08:07;11.10;79.10
16271;DHT22;8243;49.048;8.396;2023-01-04T14:10:34;11.00;79.50
16271;DHT22;8243;49.048;8.396;2023-01-04T14:13:02;11.00;80.20
16271;DHT22;8243;49.048;8.396;2023-01-04T14:15:28;11.00;80.00
16271;DHT22;8243;49.048;8.396;2023-01-04T14:17:57;11.00;80.10
16271;DHT22;8243;49.048;8.396;2023-01-04T14:22:54;11.00;81.60
16271;DHT22;8243;49.048;8.396;2023-01-04T14:39:15;11.10;81.10
16271;DHT22;8243;49.048;8.396;2023-01-04T14:41:52;11.10;81.20
16271;DHT22;8243;49.048;8.396;2023-01-04T14:44:21;11.10;81.20
16271;DHT22;8243;49.048;8.396;2023-01-04T14:46:53;11.10;81.40
16271;DHT22;8243;49.048;8.396;2023-01-04T14:49:18;11.10;81.90
16271;DHT22;8243;49.048;8.396;2023-01-04T14:54:18;11.10;82.10
16271;DHT22;8243;49.048;8.396;2023-01-04T14:56:44;11.10;82.60
16271;DHT22;8243;49.048;8.396;2023-01-04T14:59:10;11.10;83.00
16271;DHT22;8243;49.048;8.396;2023-01-04T15:01:35;11.10;83.30
16271;DHT22;8243;49.048;8.396;2023-01-04T15:04:02;11.10;83.10
16271;DHT22;8243;49.048;8.396;2023-01-04T15:06:28;11.10;83.20
16271;DHT22;8243;49.048;8.396;2023-01-04T15:08:54;11.10;84.20
16271;DHT22;8243;49.048;8.396;2023-01-04T15:11:19;11.10;84.20
16271;DHT22;8243;49.048;8.396;2023-01-04T15:13:45;11.10;84.70
16271;DHT22;8243;49.048;8.396;2023-01-04T15:16:14;11.10;84.70
16271;DHT22;8243;49.048;8.396;2023-01-04T15:18:41;11.10;85.00
16271;DHT22;8243;49.048;8.396;2023-01-04T15:21:07;11.10;84.80
16271;DHT22;8243;49.048;8.396;2023-01-04T15:23:34;11.10;85.90
16271;DHT22;8243;49.048;8.396;2023-01-04T15:26:02;11.00;85.60
16271;DHT22;8243;49.048;8.396;2023-01-04T15:28:28;11.10;86.10
16271;DHT22;8243;49.048;8.396;2023-01-04T15:30:54;11.00;85.80
16271;DHT22;8243;49.048;8.396;2023-01-04T15:33:19;11.00;86.40
16271;DHT22;8243;49.048;8.396;2023-01-04T15:35:45;11.00;87.20
16271;DHT22;8243;49.048;8.396;2023-01-04T15:38:11;10.90;90.00
16271;DHT22;8243;49.048;8.396;2023-01-04T15:40:39;10.90;90.70
16271;DHT22;8243;49.048;8.396;2023-01-04T15:43:05;10.90;91.30
16271;DHT22;8243;49.048;8.396;2023-01-04T15:45:37;10.80;91.60
16271;DHT22;8243;49.048;8.396;2023-01-04T15:48:05;10.80;93.10
16271;DHT22;8243;49.048;8.396;2023-01-04T15:50:38;10.80;93.80
16271;DHT22;8243;49.048;8.396;2023-01-04T15:53:06;10.80;93.50
16271;DHT22;8243;49.048;8.396;2023-01-04T15:55:33;10.70;93.80
16271;DHT22;8243;49.048;8.396;2023-01-04T15:57:59;10.70;93.90
16271;DHT22;8243;49.048;8.396;2023-01-04T16:00:25;10.70;95.00
16271;DHT22;8243;49.048;8.396;2023-01-04T16:02:51;10.70;96.60
16271;DHT22;8243;49.048;8.396;2023-01-04T16:05:17;10.60;98.50
16271;DHT22;8243;49.048;8.396;2023-01-04T16:07:45;10.50;99.90
16271;DHT22;8243;49.048;8.396;2023-01-04T16:10:10;10.50;99.90
16271;DHT22;8243;49.048;8.396;2023-01-04T16:12:36;10.50;99.90
16271;DHT22;8243;49.048;8.396;2023-01-04T16:15:13;10.40;99.90
16271;DHT22;8243;49.048;8.396;2023-01-04T16:17:41;10.40;99.90
16271;DHT22;8243;49.048;8.396;2023-01-04T16:20:07;10.40;99.90
16271;DHT22;8243;49.048;8.396;2023-01-04T16:22:33;10.40;99.90
16271;DHT22;8243;49.048;8.396;2023-01-04T16:24:59;10.40;99.90
16271;DHT22;8243;49.048;8.396;2023-01-04T16:27:25;10.40;99.90
16271;DHT22;8243;49.048;8.396;2023-01-04T16:29:50;10.40;99.90
16271;DHT22;8243;49.048;8.396;2023-01-04T16:32:16;10.40;99.90
16271;DHT22;8243;49.048;8.396;2023-01-04T16:34:42;10.50;99.90
16271;DHT22;8243;49.048;8.396;2023-01-04T16:37:08;10.50;99.90
16271;DHT22;8243;49.048;8.396;2023-01-04T16:39:33;10.60;99.90
16271;DHT22;8243;49.048;8.396;2023-01-04T16:41:59;10.70;99.90
16271;DHT22;8243;49.048;8.396;2023-01-04T16:44:25;10.60;99.90
16271;DHT22;8243;49.048;8.396;2023-01-04T16:46:51;10.60;99.90
16271;DHT22;8243;49.048;8.396;2023-01-04T16:49:17;10.60;99.90
16271;DHT22;8243;49.048;8.396;2023-01-04T16:51:45;10.60;99.90
16271;DHT22;8243;49.048;8.396;2023-01-04T16:54:15;10.50;99.90
16271;DHT22;8243;49.048;8.396;2023-01-04T16:56:42;10.50;99.90
16271;DHT22;8243;49.048;8.396;2023-01-04T16:59:14;10.50;99.90
16271;DHT22;8243;49.048;8.396;2023-01-04T17:01:40;10.40;99.90
16271;DHT22;8243;49.048;8.396;2023-01-04T17:04:08;10.40;99.90
16271;DHT22;8243;49.048;8.396;2023-01-04T17:06:43;10.30;99.90
16271;DHT22;8243;49.048;8.396;2023-01-04T17:09:14;10.40;99.90
16271;DHT22;8243;49.048;8.396;2023-01-04T17:11:40;10.30;99.90
16271;DHT22;8243;49.048;8.396;2023-01-04T17:14:07;10.20;99.90
16271;DHT22;8243;49.048;8.396;2023-01-04T17:16:33;10.20;99.90
16271;DHT22;8243;49.048;8.396;2023-01-04T17:18:58;10.20;99.90
16271;DHT22;8243;49.048;8.396;2023-01-04T17:21:27;10.10;99.90
16271;DHT22;8243;49.048;8.396;2023-01-04T17:23:55;10.10;99.90
16271;DHT22;8243;49.048;8.396;2023-01-04T17:26:23;10.10;99.90
16271;DHT22;8243;49.048;8.396;2023-01-04T17:28:50;10.00;99.90
16271;DHT22;8243;49.048;8.396;2023-01-04T17:31:21;10.00;99.90
16271;DHT22;8243;49.048;8.396;2023-01-04T17:33:48;9.90;99.90
16271;DHT22;8243;49.048;8.396;2023-01-04T17:36:14;9.90;99.90
16271;DHT22;8243;49.048;8.396;2023-01-04T17:38:42;9.90;99.90
16271;DHT22;8243;49.048;8.396;2023-01-04T17:41:12;9.80;99.90
16271;DHT22;8243;49.048;8.396;2023-01-04T17:43:39;9.80;99.90
16271;DHT22;8243;49.048;8.396;2023-01-04T17:46:08;9.80;99.90
16271;DHT22;8243;49.048;8.396;2023-01-04T17:48:42;9.80;99.90
16271;DHT22;8243;49.048;8.396;2023-01-04T17:51:18;9.80;99.90
16271;DHT22;8243;49.048;8.396;2023-01-04T17:53:51;9.70;99.90
16271;DHT22;8243;49.048;8.396;2023-01-04T17:56:17;9.70;99.90
16271;DHT22;8243;49.048;8.396;2023-01-04T17:58:44;9.70;99.90
16271;DHT22;8243;49.048;8.396;2023-01-04T18:01:21;9.70;99.90
16271;DHT22;8243;49.048;8.396;2023-01-04T18:03:49;9.70;99.90
16271;DHT22;8243;49.048;8.396;2023-01-04T18:06:16;9.70;99.90
16271;DHT22;8243;49.048;8.396;2023-01-04T18:08:43;9.70;99.90